createdAt,value
2023-04-22T00:02:19.588Z,3.90
2023-04-22T00:04:48.349Z,3.95
2023-04-22T00:07:19.316Z,3.60
2023-04-22T00:09:48.052Z,4.25
2023-04-22T00:12:16.877Z,3.30
2023-04-22T00:14:45.448Z,3.90
2023-04-22T00:17:14.056Z,3.78
2023-04-22T00:19:44.014Z,3.42
2023-04-22T00:22:12.525Z,4.22
2023-04-22T00:24:41.422Z,3.10
2023-04-22T00:27:10.027Z,3.80
2023-04-22T00:29:39.675Z,4.18
2023-04-22T00:32:08.595Z,3.95
2023-04-22T00:34:37.108Z,3.85
2023-04-22T00:37:07.092Z,4.00
2023-04-22T00:39:35.702Z,3.85
2023-04-22T00:42:04.511Z,3.45
2023-04-22T00:44:33.783Z,3.38
2023-04-22T00:47:03.235Z,4.82
2023-04-22T00:49:32.374Z,4.00
2023-04-22T00:52:02.437Z,3.33
2023-04-22T00:54:33.254Z,4.38
2023-04-22T00:57:02.262Z,3.92
2023-04-22T00:59:31.310Z,3.70
2023-04-22T01:02:00.115Z,3.33
2023-04-22T01:04:29.131Z,3.63
2023-04-22T01:07:00.589Z,4.18
2023-04-22T01:09:29.182Z,3.72
2023-04-22T01:11:59.146Z,4.43
2023-04-22T01:14:27.742Z,4.47
2023-04-22T01:16:57.823Z,3.67
2023-04-22T01:19:29.436Z,3.58
2023-04-22T01:21:59.280Z,3.97
2023-04-22T01:24:30.682Z,4.32
2023-04-22T01:26:59.316Z,3.78
2023-04-22T01:29:27.955Z,3.92
2023-04-22T01:31:57.028Z,3.60
2023-04-22T01:34:25.716Z,4.22
2023-04-22T01:36:54.213Z,3.47
2023-04-22T01:39:22.809Z,3.97
2023-04-22T01:41:53.622Z,4.25
2023-04-22T01:44:22.351Z,3.88
2023-04-22T01:46:51.997Z,3.85
2023-04-22T01:49:20.478Z,3.78
2023-04-22T01:51:48.974Z,4.90
2023-04-22T01:54:17.624Z,4.10
2023-04-22T01:56:54.087Z,4.10
2023-04-22T01:59:23.043Z,3.78
2023-04-22T02:01:52.085Z,4.82
2023-04-22T02:04:20.681Z,4.20
2023-04-22T02:06:49.204Z,4.55
2023-04-22T02:09:17.726Z,4.00
2023-04-22T02:11:46.415Z,5.07
2023-04-22T02:14:16.224Z,4.70
2023-04-22T02:16:44.777Z,4.20
2023-04-22T02:19:13.262Z,4.82
2023-04-22T02:21:42.013Z,5.15
2023-04-22T02:24:11.611Z,3.95
2023-04-22T02:26:40.146Z,3.92
2023-04-22T02:29:08.906Z,4.45
2023-04-22T02:31:39.040Z,4.43
2023-04-22T02:34:07.657Z,3.97
2023-04-22T02:36:36.356Z,3.63
2023-04-22T02:39:06.116Z,4.82
2023-04-22T02:41:36.810Z,4.70
2023-04-22T02:44:05.918Z,4.03
2023-04-22T02:46:34.821Z,4.00
2023-04-22T02:49:05.525Z,3.90
2023-04-22T02:51:34.373Z,3.53
2023-04-22T02:54:02.938Z,3.65
2023-04-22T02:56:32.065Z,3.08
2023-04-22T02:59:00.608Z,3.95
2023-04-22T03:01:29.716Z,4.05
2023-04-22T03:04:01.872Z,3.50
2023-04-22T03:06:31.982Z,3.95
2023-04-22T03:09:00.924Z,3.78
2023-04-22T03:11:29.357Z,3.90
2023-04-22T03:13:58.044Z,4.43
2023-04-22T03:16:27.182Z,3.75
2023-04-22T03:18:57.811Z,3.45
2023-04-22T03:21:26.589Z,3.83
2023-04-22T03:23:57.205Z,3.28
2023-04-22T03:26:25.974Z,3.20
2023-04-22T03:28:55.385Z,3.55
2023-04-22T03:31:25.094Z,4.10
2023-04-22T03:33:54.058Z,3.53
2023-04-22T03:36:29.106Z,3.30
2023-04-22T03:38:59.855Z,3.63
2023-04-22T03:41:29.616Z,3.88
2023-04-22T03:44:01.533Z,3.72
2023-04-22T03:46:30.993Z,3.78
2023-04-22T03:49:09.091Z,4.15
2023-04-22T03:51:37.657Z,3.70
2023-04-22T03:54:12.674Z,3.60
2023-04-22T03:56:48.082Z,4.13
2023-04-22T03:59:18.570Z,4.13
2023-04-22T04:01:47.587Z,4.45
2023-04-22T04:04:19.877Z,3.60
2023-04-22T04:06:54.151Z,3.83
2023-04-22T04:09:24.168Z,3.75
2023-04-22T04:11:53.470Z,3.40
2023-04-22T04:14:22.005Z,3.45
2023-04-22T04:16:53.663Z,4.20
2023-04-22T04:19:31.762Z,3.60
2023-04-22T04:22:01.859Z,3.75
2023-04-22T04:24:36.709Z,4.35
2023-04-22T04:27:12.633Z,4.03
2023-04-22T04:29:49.614Z,3.47
2023-04-22T04:32:27.037Z,4.00
2023-04-22T04:34:57.659Z,3.38
2023-04-22T04:37:27.471Z,4.05
2023-04-22T04:40:06.752Z,3.92
2023-04-22T04:43:02.632Z,3.85
2023-04-22T04:45:37.754Z,4.22
2023-04-22T04:48:08.986Z,4.50
2023-04-22T04:53:11.183Z,3.60
2023-04-22T04:55:43.927Z,3.72
2023-04-22T04:58:20.023Z,3.60
2023-04-22T05:00:52.915Z,3.58
2023-04-22T05:03:21.885Z,3.67
2023-04-22T05:05:50.725Z,3.30
2023-04-22T05:08:19.234Z,3.60
2023-04-22T05:10:51.035Z,3.10
2023-04-22T05:13:20.158Z,3.20
2023-04-22T05:15:49.911Z,3.03
2023-04-22T05:18:19.185Z,3.50
2023-04-22T05:20:47.933Z,3.75
2023-04-22T05:23:17.770Z,3.40
2023-04-22T05:25:52.796Z,3.30
2023-04-22T05:28:23.575Z,3.97
2023-04-22T05:30:56.125Z,3.97
2023-04-22T05:33:24.752Z,3.55
2023-04-22T05:35:53.795Z,3.55
2023-04-22T05:38:22.545Z,3.10
2023-04-22T05:40:51.431Z,3.20
2023-04-22T05:43:20.971Z,3.50
2023-04-22T05:45:58.751Z,3.72
2023-04-22T05:48:28.125Z,3.47
2023-04-22T05:51:02.833Z,4.50
2023-04-22T05:53:32.565Z,4.20
2023-04-22T05:56:03.030Z,3.60
2023-04-22T05:58:31.535Z,3.30
2023-04-22T06:01:05.889Z,3.40
2023-04-22T06:04:05.264Z,3.72
2023-04-22T06:06:34.368Z,3.33
2023-04-22T06:09:03.078Z,4.45
2023-04-22T06:11:32.179Z,3.90
2023-04-22T06:14:01.294Z,3.88
2023-04-22T06:16:31.526Z,4.13
2023-04-22T06:19:00.120Z,3.50
2023-04-22T06:21:28.780Z,3.35
2023-04-22T06:23:59.876Z,3.22
2023-04-22T06:26:28.561Z,3.15
2023-04-22T06:28:57.763Z,3.47
2023-04-22T06:31:26.339Z,3.38
2023-04-22T06:33:56.383Z,3.85
2023-04-22T06:36:25.431Z,3.60
2023-04-22T06:38:59.076Z,3.10
2023-04-22T06:41:50.271Z,3.25
2023-04-22T06:44:39.872Z,3.10
2023-04-22T06:47:30.358Z,4.35
2023-04-22T06:50:12.946Z,3.10
2023-04-22T06:52:57.303Z,3.45
2023-04-22T06:55:29.220Z,3.88
2023-04-22T06:57:58.023Z,3.22
2023-04-22T07:00:28.200Z,4.25
2023-04-22T07:02:56.983Z,3.80
2023-04-22T07:05:27.313Z,3.85
2023-04-22T07:07:56.897Z,3.67
2023-04-22T07:10:26.550Z,3.75
2023-04-22T07:13:18.003Z,3.78
2023-04-22T07:15:46.792Z,3.42
2023-04-22T07:18:15.360Z,4.50
2023-04-22T07:20:45.421Z,3.53
2023-04-22T07:23:14.005Z,3.67
2023-04-22T07:25:42.594Z,4.22
2023-04-22T07:28:11.311Z,3.95
2023-04-22T07:30:39.855Z,4.00
2023-04-22T07:33:08.502Z,3.67
2023-04-22T07:35:38.880Z,4.18
2023-04-22T07:38:09.867Z,3.83
2023-04-22T07:40:39.168Z,3.55
2023-04-22T07:43:07.837Z,3.88
2023-04-22T07:45:36.457Z,3.53
2023-04-22T07:48:05.533Z,3.72
2023-04-22T07:50:34.129Z,3.42
2023-04-22T07:53:02.976Z,3.72
2023-04-22T07:55:33.257Z,3.40
2023-04-22T07:58:06.375Z,3.67
2023-04-22T08:00:35.623Z,4.00
2023-04-22T08:03:04.979Z,3.50
2023-04-22T08:05:33.804Z,4.05
2023-04-22T08:08:02.742Z,3.92
2023-04-22T08:10:32.819Z,4.03
2023-04-22T08:13:03.172Z,3.95
2023-04-22T08:15:31.706Z,3.50
2023-04-22T08:18:00.361Z,4.38
2023-04-22T08:20:28.925Z,3.80
2023-04-22T08:22:58.230Z,3.47
2023-04-22T08:25:26.767Z,3.67
2023-04-22T08:27:57.948Z,3.80
2023-04-22T08:30:26.758Z,5.05
2023-04-22T08:32:55.482Z,4.07
2023-04-22T08:35:24.168Z,3.85
2023-04-22T08:37:52.721Z,3.75
2023-04-22T08:40:21.573Z,4.00
2023-04-22T08:42:52.193Z,3.60
2023-04-22T08:45:22.558Z,3.72
2023-04-22T08:47:51.276Z,4.13
2023-04-22T08:50:22.145Z,3.75
2023-04-22T08:52:51.066Z,3.47
2023-04-22T08:55:20.525Z,3.78
2023-04-22T08:57:50.334Z,4.05
2023-04-22T09:00:20.103Z,3.30
2023-04-22T09:02:51.795Z,3.90
2023-04-22T09:05:23.434Z,3.65
2023-04-22T09:07:52.360Z,3.67
2023-04-22T09:10:21.284Z,3.78
2023-04-22T09:12:50.547Z,3.33
2023-04-22T09:15:19.289Z,5.50
2023-04-22T09:17:52.035Z,3.30
2023-04-22T09:20:20.747Z,3.95
2023-04-22T09:22:50.760Z,4.40
2023-04-22T09:25:20.591Z,3.75
2023-04-22T09:27:53.052Z,3.13
2023-04-22T09:30:25.585Z,4.43
2023-04-22T09:32:57.347Z,3.30
2023-04-22T09:35:30.164Z,3.88
2023-04-22T09:38:00.535Z,3.80
2023-04-22T09:40:29.990Z,3.90
2023-04-22T09:43:01.823Z,5.15
2023-04-22T09:45:31.914Z,3.58
2023-04-22T09:48:07.906Z,3.67
2023-04-22T09:50:37.836Z,4.38
2023-04-22T09:53:08.186Z,3.33
2023-04-22T09:55:38.997Z,3.30
2023-04-22T09:58:09.740Z,3.40
2023-04-22T10:00:42.604Z,4.07
2023-04-22T10:03:12.959Z,3.65
2023-04-22T10:05:42.186Z,3.70
2023-04-22T10:08:12.099Z,4.00
2023-04-22T10:10:41.281Z,3.60
2023-04-22T10:13:10.712Z,4.30
2023-04-22T10:15:41.607Z,4.10
2023-04-22T10:18:15.319Z,4.15
2023-04-22T10:20:45.286Z,3.80
2023-04-22T10:23:16.223Z,4.45
2023-04-22T10:25:48.838Z,3.13
2023-04-22T10:28:18.705Z,3.60
2023-04-22T10:30:47.902Z,3.53
2023-04-22T10:33:40.025Z,5.95
2023-04-22T10:36:10.634Z,4.25
2023-04-22T10:38:41.891Z,4.40
2023-04-22T10:41:17.035Z,3.85
2023-04-22T10:43:49.068Z,4.50
2023-04-22T10:46:54.725Z,5.03
2023-04-22T10:49:27.857Z,4.47
2023-04-22T10:51:59.867Z,3.83
2023-04-22T10:54:58.016Z,4.50
2023-04-22T10:57:38.520Z,3.42
2023-04-22T11:03:17.341Z,3.63
2023-04-22T11:05:48.761Z,4.47
2023-04-22T11:08:25.134Z,3.78
2023-04-22T11:10:55.585Z,3.28
2023-04-22T11:13:26.952Z,3.50
2023-04-22T11:16:01.209Z,4.80
2023-04-22T11:18:33.644Z,4.25
2023-04-22T11:21:08.908Z,4.28
2023-04-22T11:23:37.701Z,3.08
2023-04-22T11:26:12.473Z,3.47
2023-04-22T11:28:52.718Z,3.45
2023-04-22T11:31:27.872Z,3.50
2023-04-22T11:34:00.761Z,4.93
2023-04-22T11:36:32.897Z,4.45
2023-04-22T11:39:03.344Z,3.58
2023-04-22T11:41:34.612Z,3.90
2023-04-22T11:44:07.626Z,4.47
2023-04-22T11:46:40.580Z,5.25
2023-04-22T11:49:16.942Z,4.50
2023-04-22T11:52:00.962Z,3.95
2023-04-22T11:54:35.628Z,3.28
2023-04-22T11:57:09.302Z,4.22
2023-04-22T12:02:13.851Z,5.40
2023-04-22T12:04:46.357Z,4.55
2023-04-22T12:07:17.767Z,3.60
2023-04-22T12:09:51.301Z,4.20
2023-04-22T12:12:27.030Z,3.50
2023-04-22T12:14:58.092Z,3.97
2023-04-22T12:17:27.337Z,4.00
2023-04-22T12:19:56.684Z,3.85
2023-04-22T12:22:28.152Z,3.97
2023-04-22T12:24:59.726Z,3.92
2023-04-22T12:27:29.187Z,3.38
2023-04-22T12:29:58.852Z,5.30
2023-04-22T12:32:31.556Z,5.85
2023-04-22T12:35:00.187Z,5.03
2023-04-22T12:37:30.721Z,4.55
2023-04-22T12:39:59.796Z,3.85
2023-04-22T12:42:28.366Z,4.75
2023-04-22T12:44:56.981Z,4.88
2023-04-22T12:47:25.925Z,4.72
2023-04-22T12:49:54.542Z,5.18
2023-04-22T12:52:23.266Z,4.07
2023-04-22T12:54:53.457Z,4.03
2023-04-22T12:57:22.001Z,4.72
2023-04-22T12:59:50.534Z,5.60
2023-04-22T13:02:19.353Z,5.43
2023-04-22T13:04:47.946Z,3.85
2023-04-22T13:07:17.480Z,4.55
2023-04-22T13:09:46.108Z,4.95
2023-04-22T13:12:16.284Z,4.25
2023-04-22T13:14:44.803Z,4.32
2023-04-22T13:17:13.551Z,4.15
2023-04-22T13:19:42.211Z,4.28
2023-04-22T13:22:10.867Z,3.78
2023-04-22T13:24:39.350Z,4.05
2023-04-22T13:27:07.961Z,4.93
2023-04-22T13:29:38.344Z,4.32
2023-04-22T13:32:07.246Z,4.32
2023-04-22T13:34:35.858Z,3.70
2023-04-22T13:37:04.635Z,4.15
2023-04-22T13:39:33.566Z,3.90
2023-04-22T13:42:02.809Z,4.28
2023-04-22T13:44:31.477Z,4.68
2023-04-22T13:47:02.764Z,3.85
2023-04-22T13:49:31.585Z,6.60
2023-04-22T13:52:00.098Z,4.75
2023-04-22T13:54:28.592Z,3.45
2023-04-22T13:56:57.156Z,4.28
2023-04-22T13:59:25.963Z,3.83
2023-04-22T14:01:54.468Z,3.45
2023-04-22T14:04:24.539Z,4.07
2023-04-22T14:06:53.338Z,3.30
2023-04-22T14:09:22.166Z,3.20
2023-04-22T14:11:50.739Z,3.28
2023-04-22T14:14:19.321Z,3.50
2023-04-22T14:16:47.920Z,3.60
2023-04-22T14:19:19.292Z,3.85
2023-04-22T14:21:49.065Z,3.22
2023-04-22T14:24:19.385Z,3.75
2023-04-22T14:26:47.962Z,3.55
2023-04-22T14:29:16.643Z,4.20
2023-04-22T14:31:45.256Z,4.32
2023-04-22T14:34:13.873Z,3.53
2023-04-22T14:36:42.417Z,3.05
2023-04-22T14:39:12.508Z,3.40
2023-04-22T14:41:41.463Z,2.78
2023-04-22T14:44:10.088Z,2.97
2023-04-22T14:46:38.643Z,3.22
2023-04-22T14:49:07.332Z,3.15
2023-04-22T14:51:36.512Z,3.35
2023-04-22T14:54:05.280Z,3.40
2023-04-22T14:56:36.115Z,3.50
2023-04-22T14:59:04.600Z,3.72
2023-04-22T15:01:33.643Z,3.80
2023-04-22T15:04:02.231Z,4.43
2023-04-22T15:06:31.080Z,3.25
2023-04-22T15:08:59.558Z,3.58
2023-04-22T15:11:28.057Z,3.70
2023-04-22T15:13:57.972Z,3.20
2023-04-22T15:16:26.619Z,3.70
2023-04-22T15:18:55.752Z,3.40
2023-04-22T15:21:24.328Z,3.10
2023-04-22T15:23:53.102Z,4.07
2023-04-22T15:26:21.649Z,3.55
2023-04-22T15:28:51.290Z,2.80
2023-04-22T15:31:21.924Z,2.90
2023-04-22T15:33:50.571Z,3.70
2023-04-22T15:36:21.578Z,3.95
2023-04-22T15:38:56.343Z,3.38
2023-04-22T15:41:25.392Z,3.33
2023-04-22T15:43:54.330Z,3.42
2023-04-22T15:46:24.303Z,3.30
2023-04-22T15:48:52.897Z,3.72
2023-04-22T15:51:21.868Z,3.90
2023-04-22T15:53:50.519Z,3.40
2023-04-22T15:56:19.433Z,3.33
2023-04-22T15:58:47.939Z,2.65
2023-04-22T16:01:19.560Z,3.20
2023-04-22T16:03:51.474Z,3.13
2023-04-22T16:06:20.416Z,2.67
2023-04-22T16:08:48.942Z,2.65
2023-04-22T16:11:17.623Z,2.60
2023-04-22T16:13:46.436Z,2.58
2023-04-22T16:16:15.117Z,2.63
2023-04-22T16:18:44.461Z,3.30
2023-04-22T16:21:14.435Z,3.65
2023-04-22T16:23:43.407Z,4.22
2023-04-22T16:26:12.012Z,3.40
2023-04-22T16:28:40.735Z,2.75
2023-04-22T16:31:12.342Z,2.70
2023-04-22T16:33:40.917Z,2.75
2023-04-22T16:36:10.290Z,2.95
2023-04-22T16:38:40.171Z,2.70
2023-04-22T16:41:11.508Z,2.30
2023-04-22T16:43:41.383Z,3.03
2023-04-22T16:46:09.906Z,3.13
2023-04-22T16:48:38.514Z,3.35
2023-04-22T16:51:07.185Z,3.55
2023-04-22T16:53:36.621Z,3.15
2023-04-22T16:56:06.902Z,3.38
2023-04-22T16:58:35.450Z,3.35
2023-04-22T17:01:04.181Z,3.22
2023-04-22T17:03:33.313Z,4.15
2023-04-22T17:06:01.988Z,3.40
2023-04-22T17:08:30.667Z,3.35
2023-04-22T17:10:59.502Z,3.13
2023-04-22T17:13:29.410Z,3.33
2023-04-22T17:15:58.004Z,3.10
2023-04-22T17:18:26.764Z,3.25
2023-04-22T17:20:55.924Z,3.00
2023-04-22T17:23:24.377Z,3.17
2023-04-22T17:25:52.857Z,3.30
2023-04-22T17:28:21.476Z,4.05
2023-04-22T17:30:51.424Z,3.13
2023-04-22T17:33:19.967Z,4.13
2023-04-22T17:35:48.508Z,4.20
2023-04-22T17:38:17.056Z,3.33
2023-04-22T17:40:45.861Z,3.85
2023-04-22T17:43:14.466Z,4.00
2023-04-22T17:45:42.957Z,3.28
2023-04-22T17:48:12.963Z,2.72
2023-04-22T17:50:41.473Z,3.30
2023-04-22T17:53:09.956Z,3.60
2023-04-22T17:55:38.927Z,3.28
2023-04-22T17:58:07.494Z,3.55
2023-04-22T18:00:36.951Z,3.30
2023-04-22T18:03:06.594Z,3.40
2023-04-22T18:05:42.971Z,3.30
2023-04-22T18:08:11.826Z,2.80
2023-04-22T18:10:40.390Z,3.88
2023-04-22T18:13:08.881Z,3.33
2023-04-22T18:15:37.376Z,3.58
2023-04-22T18:18:05.981Z,3.67
2023-04-22T18:20:36.265Z,3.90
2023-04-22T18:23:05.656Z,5.25
2023-04-22T18:25:35.218Z,3.17
2023-04-22T18:28:03.833Z,4.22
2023-04-22T18:30:32.920Z,3.67
2023-04-22T18:33:01.626Z,4.78
2023-04-22T18:35:30.658Z,4.38
2023-04-22T18:38:00.818Z,4.43
2023-04-22T18:40:29.760Z,3.63
2023-04-22T18:42:58.814Z,3.78
2023-04-22T18:45:27.591Z,3.85
2023-04-22T18:47:56.803Z,3.97
2023-04-22T18:50:25.662Z,3.80
2023-04-22T18:52:54.556Z,3.70
2023-04-22T18:55:24.990Z,3.13
2023-04-22T18:57:53.767Z,3.58
2023-04-22T19:00:22.694Z,3.75
2023-04-22T19:02:51.575Z,3.67
2023-04-22T19:05:20.553Z,4.03
2023-04-22T19:07:49.637Z,3.55
2023-04-22T19:10:18.408Z,3.80
2023-04-22T19:12:48.377Z,3.50
2023-04-22T19:15:20.072Z,3.85
2023-04-22T19:17:49.073Z,4.15
2023-04-22T19:20:18.119Z,4.70
2023-04-22T19:22:46.814Z,3.70
2023-04-22T19:25:16.341Z,3.53
2023-04-22T19:27:44.780Z,3.95
2023-04-22T19:30:16.542Z,5.65
2023-04-22T19:32:45.417Z,5.13
2023-04-22T19:35:16.363Z,6.35
2023-04-22T19:37:45.629Z,5.07
2023-04-22T19:40:17.331Z,5.57
2023-04-22T19:42:47.403Z,5.40
2023-04-22T19:45:17.634Z,5.65
2023-04-22T19:47:46.775Z,7.22
2023-04-22T19:50:16.747Z,6.60
2023-04-22T19:52:47.614Z,5.18
2023-04-22T19:55:17.536Z,5.05
2023-04-22T19:57:46.860Z,5.10
2023-04-22T20:00:18.952Z,6.22
2023-04-22T20:02:48.344Z,5.38
2023-04-22T20:05:18.898Z,5.78
2023-04-22T20:07:48.518Z,6.03
2023-04-22T20:10:18.259Z,7.85
2023-04-22T20:12:47.177Z,7.45
2023-04-22T20:15:18.053Z,6.53
2023-04-22T20:17:47.102Z,7.43
2023-04-22T20:20:17.699Z,7.18
2023-04-22T20:22:47.423Z,7.82
2023-04-22T20:25:18.257Z,7.22
2023-04-22T20:27:47.380Z,7.32
2023-04-22T20:30:18.940Z,8.40
2023-04-22T20:32:48.035Z,7.13
2023-04-22T20:35:17.362Z,6.38
2023-04-22T20:37:47.129Z,6.50
2023-04-22T20:40:16.812Z,7.60
2023-04-22T20:42:46.735Z,7.72
2023-04-22T20:45:17.888Z,8.35
2023-04-22T20:47:48.616Z,8.77
2023-04-22T20:50:17.393Z,10.63
2023-04-22T20:52:45.887Z,8.50
2023-04-22T20:55:14.571Z,8.10
2023-04-22T20:57:43.179Z,9.85
2023-04-22T21:00:12.639Z,9.10
2023-04-22T21:02:43.247Z,9.15
2023-04-22T21:05:13.770Z,8.70
2023-04-22T21:07:44.525Z,11.05
2023-04-22T21:10:14.023Z,8.70
2023-04-22T21:12:43.408Z,9.75
2023-04-22T21:15:18.745Z,10.95
2023-04-22T21:18:03.330Z,9.77
2023-04-22T21:23:11.063Z,9.88
2023-04-22T21:25:41.598Z,9.27
2023-04-22T21:28:12.611Z,7.65
2023-04-22T21:30:42.546Z,10.93
2023-04-22T21:33:12.000Z,11.73
2023-04-22T21:35:45.419Z,10.80
2023-04-22T21:38:16.719Z,11.82
2023-04-22T21:40:49.049Z,9.70
2023-04-22T21:43:29.604Z,11.38
2023-04-22T21:45:58.535Z,10.98
2023-04-22T21:48:27.696Z,11.68
2023-04-22T21:50:58.663Z,10.18
2023-04-22T21:53:28.452Z,10.93
2023-04-22T21:55:58.099Z,9.05
2023-04-22T21:58:29.496Z,8.63
2023-04-22T22:00:58.629Z,9.80
2023-04-22T22:03:28.136Z,9.02
2023-04-22T22:05:59.922Z,9.75
2023-04-22T22:08:28.908Z,8.88
2023-04-22T22:10:57.913Z,9.57
2023-04-22T22:13:27.022Z,12.73
2023-04-22T22:15:57.713Z,10.57
2023-04-22T22:18:27.512Z,9.48
2023-04-22T22:20:56.084Z,9.23
2023-04-22T22:23:26.164Z,8.40
2023-04-22T22:25:54.721Z,9.82
2023-04-22T22:28:23.286Z,9.75
2023-04-22T22:30:51.816Z,8.88
2023-04-22T22:33:20.360Z,8.18
2023-04-22T22:35:48.998Z,7.72
2023-04-22T22:38:17.530Z,8.43
2023-04-22T22:40:47.444Z,9.00
2023-04-22T22:43:16.406Z,9.05
2023-04-22T22:45:45.633Z,8.13
2023-04-22T22:48:15.939Z,9.15
2023-04-22T22:50:46.765Z,10.57
2023-04-22T22:53:16.171Z,9.93
2023-04-22T22:55:45.510Z,9.88
2023-04-22T22:58:16.772Z,9.75
2023-04-22T23:00:45.675Z,10.63
2023-04-22T23:03:14.292Z,10.13
2023-04-22T23:05:42.975Z,9.43
2023-04-22T23:08:12.417Z,8.93
2023-04-22T23:10:40.884Z,9.43
2023-04-22T23:13:09.346Z,12.82
2023-04-22T23:15:39.335Z,10.13
2023-04-22T23:18:08.979Z,10.60
2023-04-22T23:20:38.304Z,11.63
2023-04-22T23:23:07.327Z,12.07
2023-04-22T23:25:36.347Z,11.13
2023-04-22T23:28:05.595Z,9.68
2023-04-22T23:30:34.898Z,9.90
2023-04-22T23:33:05.940Z,14.00
2023-04-22T23:35:36.748Z,13.00
2023-04-22T23:38:05.555Z,10.48
2023-04-22T23:40:34.057Z,11.38
2023-04-22T23:43:02.621Z,9.50
2023-04-22T23:45:31.132Z,10.70
2023-04-22T23:47:59.909Z,10.65
2023-04-22T23:50:30.656Z,9.35
2023-04-22T23:52:59.469Z,10.68
2023-04-22T23:55:28.836Z,9.40
2023-04-22T23:57:57.940Z,8.93
